sensor_id;sensor_type;location;lat;lon;timestamp;P1;durP1;ratioP1;P2;durP2;ratioP2
25936;SDS011;13733;51.178;4.450;2023-02-01T00:00:15;30.25;;;7.38;;
25936;SDS011;13733;51.178;4.450;2023-02-01T00:02:41;31.42;;;8.40;;
25936;SDS011;13733;51.178;4.450;2023-02-01T00:05:08;30.38;;;6.97;;
25936;SDS011;13733;51.178;4.450;2023-02-01T00:07:34;35.75;;;8.90;;
25936;SDS011;13733;51.178;4.450;2023-02-01T00:10:00;24.42;;;7.25;;
25936;SDS011;13733;51.178;4.450;2023-02-01T00:12:28;34.33;;;8.20;;
25936;SDS011;13733;51.178;4.450;2023-02-01T00:14:54;27.63;;;7.55;;
25936;SDS011;13733;51.178;4.450;2023-02-01T00:17:19;32.72;;;8.40;;
25936;SDS011;13733;51.178;4.450;2023-02-01T00:19:45;31.50;;;7.85;;
25936;SDS011;13733;51.178;4.450;2023-02-01T00:22:11;33.10;;;8.10;;
25936;SDS011;13733;51.178;4.450;2023-02-01T00:24:36;29.23;;;8.68;;
25936;SDS011;13733;51.178;4.450;2023-02-01T00:27:02;30.98;;;7.63;;
25936;SDS011;13733;51.178;4.450;2023-02-01T00:29:27;36.17;;;8.00;;
25936;SDS011;13733;51.178;4.450;2023-02-01T00:31:53;34.85;;;8.40;;
25936;SDS011;13733;51.178;4.450;2023-02-01T00:34:19;29.35;;;7.85;;
25936;SDS011;13733;51.178;4.450;2023-02-01T00:36:45;30.08;;;8.50;;
25936;SDS011;13733;51.178;4.450;2023-02-01T00:39:11;31.25;;;8.77;;
25936;SDS011;13733;51.178;4.450;2023-02-01T00:41:37;26.85;;;7.90;;
25936;SDS011;13733;51.178;4.450;2023-02-01T00:44:03;27.40;;;8.50;;
25936;SDS011;13733;51.178;4.450;2023-02-01T00:46:29;29.60;;;8.55;;
25936;SDS011;13733;51.178;4.450;2023-02-01T00:48:55;31.95;;;8.82;;
25936;SDS011;13733;51.178;4.450;2023-02-01T00:51:22;31.27;;;9.23;;
25936;SDS011;13733;51.178;4.450;2023-02-01T00:53:50;41.00;;;8.82;;
25936;SDS011;13733;51.178;4.450;2023-02-01T00:56:16;36.83;;;8.05;;
25936;SDS011;13733;51.178;4.450;2023-02-01T00:58:42;25.27;;;7.63;;
25936;SDS011;13733;51.178;4.450;2023-02-01T01:03:40;36.40;;;8.20;;
25936;SDS011;13733;51.178;4.450;2023-02-01T01:06:11;27.75;;;7.80;;
25936;SDS011;13733;51.178;4.450;2023-02-01T01:08:40;35.30;;;8.60;;
25936;SDS011;13733;51.178;4.450;2023-02-01T01:11:07;33.50;;;7.78;;
25936;SDS011;13733;51.178;4.450;2023-02-01T01:13:37;35.72;;;7.60;;
25936;SDS011;13733;51.178;4.450;2023-02-01T01:16:04;36.65;;;8.93;;
25936;SDS011;13733;51.178;4.450;2023-02-01T01:18:31;33.97;;;7.43;;
25936;SDS011;13733;51.178;4.450;2023-02-01T01:20:58;31.08;;;8.60;;
25936;SDS011;13733;51.178;4.450;2023-02-01T01:23:25;35.25;;;7.72;;
25936;SDS011;13733;51.178;4.450;2023-02-01T01:25:50;32.00;;;8.20;;
25936;SDS011;13733;51.178;4.450;2023-02-01T01:28:16;28.13;;;6.88;;
25936;SDS011;13733;51.178;4.450;2023-02-01T01:30:42;29.52;;;7.93;;
25936;SDS011;13733;51.178;4.450;2023-02-01T01:33:08;33.83;;;7.97;;
25936;SDS011;13733;51.178;4.450;2023-02-01T01:35:34;32.13;;;8.52;;
25936;SDS011;13733;51.178;4.450;2023-02-01T01:38:00;27.63;;;6.97;;
25936;SDS011;13733;51.178;4.450;2023-02-01T01:40:26;22.55;;;6.68;;
25936;SDS011;13733;51.178;4.450;2023-02-01T01:42:53;25.65;;;6.88;;
25936;SDS011;13733;51.178;4.450;2023-02-01T01:45:22;29.20;;;6.97;;
25936;SDS011;13733;51.178;4.450;2023-02-01T01:47:54;34.75;;;7.20;;
25936;SDS011;13733;51.178;4.450;2023-02-01T01:50:23;28.33;;;6.28;;
25936;SDS011;13733;51.178;4.450;2023-02-01T01:52:55;28.73;;;6.43;;
25936;SDS011;13733;51.178;4.450;2023-02-01T01:55:24;29.90;;;6.38;;
25936;SDS011;13733;51.178;4.450;2023-02-01T01:57:57;23.92;;;6.30;;
25936;SDS011;13733;51.178;4.450;2023-02-01T02:00:27;35.78;;;5.88;;
25936;SDS011;13733;51.178;4.450;2023-02-01T02:02:57;28.80;;;6.10;;
25936;SDS011;13733;51.178;4.450;2023-02-01T02:05:28;26.27;;;5.55;;
25936;SDS011;13733;51.178;4.450;2023-02-01T02:07:57;23.77;;;5.72;;
25936;SDS011;13733;51.178;4.450;2023-02-01T02:10:25;25.70;;;5.38;;
25936;SDS011;13733;51.178;4.450;2023-02-01T02:13:10;30.30;;;6.13;;
25936;SDS011;13733;51.178;4.450;2023-02-01T02:15:38;33.40;;;5.97;;
25936;SDS011;13733;51.178;4.450;2023-02-01T02:18:15;27.95;;;5.88;;
25936;SDS011;13733;51.178;4.450;2023-02-01T02:34:27;26.27;;;5.97;;
25936;SDS011;13733;51.178;4.450;2023-02-01T02:37:11;27.30;;;6.65;;
25936;SDS011;13733;51.178;4.450;2023-02-01T02:45:26;33.17;;;6.20;;
25936;SDS011;13733;51.178;4.450;2023-02-01T02:48:47;35.95;;;6.35;;
25936;SDS011;13733;51.178;4.450;2023-02-01T02:51:19;28.77;;;6.35;;
25936;SDS011;13733;51.178;4.450;2023-02-01T02:54:21;26.77;;;6.75;;
25936;SDS011;13733;51.178;4.450;2023-02-01T02:57:10;28.10;;;6.60;;
25936;SDS011;13733;51.178;4.450;2023-02-01T03:00:21;27.50;;;5.78;;
25936;SDS011;13733;51.178;4.450;2023-02-01T03:03:09;27.05;;;5.50;;
25936;SDS011;13733;51.178;4.450;2023-02-01T03:05:53;31.35;;;6.88;;
25936;SDS011;13733;51.178;4.450;2023-02-01T03:08:20;26.17;;;5.68;;
25936;SDS011;13733;51.178;4.450;2023-02-01T03:10:48;26.88;;;5.68;;
25936;SDS011;13733;51.178;4.450;2023-02-01T03:13:42;30.50;;;5.85;;
25936;SDS011;13733;51.178;4.450;2023-02-01T03:27:20;24.80;;;5.78;;
25936;SDS011;13733;51.178;4.450;2023-02-01T03:29:59;24.10;;;5.32;;
25936;SDS011;13733;51.178;4.450;2023-02-01T03:32:44;30.80;;;4.68;;
25936;SDS011;13733;51.178;4.450;2023-02-01T03:38:01;30.38;;;6.43;;
25936;SDS011;13733;51.178;4.450;2023-02-01T03:40:42;33.33;;;5.90;;
25936;SDS011;13733;51.178;4.450;2023-02-01T03:43:12;28.47;;;5.90;;
25936;SDS011;13733;51.178;4.450;2023-02-01T03:45:43;37.85;;;5.68;;
25936;SDS011;13733;51.178;4.450;2023-02-01T03:48:14;32.38;;;5.82;;
25936;SDS011;13733;51.178;4.450;2023-02-01T03:50:47;22.73;;;4.43;;
25936;SDS011;13733;51.178;4.450;2023-02-01T03:53:16;27.73;;;5.15;;
25936;SDS011;13733;51.178;4.450;2023-02-01T03:55:45;35.42;;;6.15;;
25936;SDS011;13733;51.178;4.450;2023-02-01T03:58:18;28.80;;;5.60;;
25936;SDS011;13733;51.178;4.450;2023-02-01T04:00:53;26.20;;;5.30;;
25936;SDS011;13733;51.178;4.450;2023-02-01T04:03:21;26.23;;;5.03;;
25936;SDS011;13733;51.178;4.450;2023-02-01T04:05:47;28.40;;;5.25;;
25936;SDS011;13733;51.178;4.450;2023-02-01T04:08:14;30.65;;;5.60;;
25936;SDS011;13733;51.178;4.450;2023-02-01T04:10:40;30.55;;;5.70;;
25936;SDS011;13733;51.178;4.450;2023-02-01T04:13:06;23.35;;;5.00;;
25936;SDS011;13733;51.178;4.450;2023-02-01T04:15:32;25.70;;;5.53;;
25936;SDS011;13733;51.178;4.450;2023-02-01T04:17:59;33.47;;;5.18;;
25936;SDS011;13733;51.178;4.450;2023-02-01T04:20:26;33.00;;;6.07;;
25936;SDS011;13733;51.178;4.450;2023-02-01T04:22:51;29.10;;;5.28;;
25936;SDS011;13733;51.178;4.450;2023-02-01T04:25:17;28.92;;;6.53;;
25936;SDS011;13733;51.178;4.450;2023-02-01T04:27:45;35.85;;;5.90;;
25936;SDS011;13733;51.178;4.450;2023-02-01T04:30:11;33.40;;;6.70;;
25936;SDS011;13733;51.178;4.450;2023-02-01T04:32:38;34.45;;;6.18;;
25936;SDS011;13733;51.178;4.450;2023-02-01T04:35:04;26.70;;;5.78;;
25936;SDS011;13733;51.178;4.450;2023-02-01T04:37:30;29.95;;;5.85;;
25936;SDS011;13733;51.178;4.450;2023-02-01T04:39:56;30.70;;;5.38;;
25936;SDS011;13733;51.178;4.450;2023-02-01T04:42:22;31.42;;;6.15;;
25936;SDS011;13733;51.178;4.450;2023-02-01T04:44:47;32.08;;;5.30;;
25936;SDS011;13733;51.178;4.450;2023-02-01T04:47:13;38.40;;;5.70;;
25936;SDS011;13733;51.178;4.450;2023-02-01T04:49:40;34.05;;;6.63;;
25936;SDS011;13733;51.178;4.450;2023-02-01T04:52:06;27.25;;;5.85;;
25936;SDS011;13733;51.178;4.450;2023-02-01T04:54:32;27.75;;;6.00;;
25936;SDS011;13733;51.178;4.450;2023-02-01T04:56:58;33.75;;;5.55;;
25936;SDS011;13733;51.178;4.450;2023-02-01T04:59:24;32.70;;;6.53;;
25936;SDS011;13733;51.178;4.450;2023-02-01T05:01:50;31.90;;;6.07;;
25936;SDS011;13733;51.178;4.450;2023-02-01T05:04:15;32.80;;;6.10;;
25936;SDS011;13733;51.178;4.450;2023-02-01T05:06:43;27.20;;;5.60;;
25936;SDS011;13733;51.178;4.450;2023-02-01T05:09:10;30.42;;;5.93;;
25936;SDS011;13733;51.178;4.450;2023-02-01T05:11:35;33.22;;;5.93;;
25936;SDS011;13733;51.178;4.450;2023-02-01T05:14:20;29.67;;;5.80;;
25936;SDS011;13733;51.178;4.450;2023-02-01T05:16:46;38.03;;;7.20;;
25936;SDS011;13733;51.178;4.450;2023-02-01T05:19:11;39.50;;;6.38;;
25936;SDS011;13733;51.178;4.450;2023-02-01T05:21:37;32.03;;;5.97;;
25936;SDS011;13733;51.178;4.450;2023-02-01T05:24:03;30.83;;;5.50;;
25936;SDS011;13733;51.178;4.450;2023-02-01T05:26:35;36.63;;;5.55;;
25936;SDS011;13733;51.178;4.450;2023-02-01T05:29:01;28.55;;;5.07;;
25936;SDS011;13733;51.178;4.450;2023-02-01T05:31:27;35.47;;;5.90;;
25936;SDS011;13733;51.178;4.450;2023-02-01T05:33:53;28.13;;;5.60;;
25936;SDS011;13733;51.178;4.450;2023-02-01T05:36:18;29.48;;;5.07;;
25936;SDS011;13733;51.178;4.450;2023-02-01T05:38:44;28.73;;;6.00;;
25936;SDS011;13733;51.178;4.450;2023-02-01T05:41:10;31.63;;;5.88;;
25936;SDS011;13733;51.178;4.450;2023-02-01T05:43:36;32.20;;;6.80;;
25936;SDS011;13733;51.178;4.450;2023-02-01T05:46:01;27.77;;;6.75;;
25936;SDS011;13733;51.178;4.450;2023-02-01T05:48:27;26.17;;;6.22;;
25936;SDS011;13733;51.178;4.450;2023-02-01T05:50:53;35.88;;;6.18;;
25936;SDS011;13733;51.178;4.450;2023-02-01T05:53:18;30.10;;;6.05;;
25936;SDS011;13733;51.178;4.450;2023-02-01T05:55:44;36.03;;;6.22;;
25936;SDS011;13733;51.178;4.450;2023-02-01T05:58:10;33.13;;;5.78;;
25936;SDS011;13733;51.178;4.450;2023-02-01T06:00:37;37.85;;;6.00;;
25936;SDS011;13733;51.178;4.450;2023-02-01T06:03:03;30.67;;;6.82;;
25936;SDS011;13733;51.178;4.450;2023-02-01T06:05:29;39.22;;;5.70;;
25936;SDS011;13733;51.178;4.450;2023-02-01T06:07:55;28.15;;;5.63;;
25936;SDS011;13733;51.178;4.450;2023-02-01T06:10:21;35.97;;;5.82;;
25936;SDS011;13733;51.178;4.450;2023-02-01T06:12:47;28.80;;;5.07;;
25936;SDS011;13733;51.178;4.450;2023-02-01T06:15:13;35.28;;;5.95;;
25936;SDS011;13733;51.178;4.450;2023-02-01T06:17:41;34.35;;;6.15;;
25936;SDS011;13733;51.178;4.450;2023-02-01T06:20:09;34.53;;;6.38;;
25936;SDS011;13733;51.178;4.450;2023-02-01T06:22:36;27.15;;;6.28;;
25936;SDS011;13733;51.178;4.450;2023-02-01T06:25:05;33.80;;;6.53;;
25936;SDS011;13733;51.178;4.450;2023-02-01T06:27:33;32.17;;;6.38;;
25936;SDS011;13733;51.178;4.450;2023-02-01T06:29:59;32.58;;;6.38;;
25936;SDS011;13733;51.178;4.450;2023-02-01T06:32:25;32.60;;;6.85;;
25936;SDS011;13733;51.178;4.450;2023-02-01T06:34:51;37.10;;;6.85;;
25936;SDS011;13733;51.178;4.450;2023-02-01T06:37:21;26.15;;;6.63;;
25936;SDS011;13733;51.178;4.450;2023-02-01T06:39:48;29.45;;;5.55;;
25936;SDS011;13733;51.178;4.450;2023-02-01T06:42:14;31.20;;;6.43;;
25936;SDS011;13733;51.178;4.450;2023-02-01T06:44:39;34.45;;;6.70;;
25936;SDS011;13733;51.178;4.450;2023-02-01T06:47:05;27.02;;;5.78;;
25936;SDS011;13733;51.178;4.450;2023-02-01T06:49:31;29.63;;;5.60;;
25936;SDS011;13733;51.178;4.450;2023-02-01T06:51:56;27.10;;;5.95;;
25936;SDS011;13733;51.178;4.450;2023-02-01T06:54:25;30.83;;;5.78;;
25936;SDS011;13733;51.178;4.450;2023-02-01T06:56:51;28.75;;;5.72;;
25936;SDS011;13733;51.178;4.450;2023-02-01T06:59:17;24.95;;;4.90;;
25936;SDS011;13733;51.178;4.450;2023-02-01T07:01:43;33.60;;;5.88;;
25936;SDS011;13733;51.178;4.450;2023-02-01T07:04:09;27.50;;;5.50;;
25936;SDS011;13733;51.178;4.450;2023-02-01T07:06:39;40.95;;;6.57;;
25936;SDS011;13733;51.178;4.450;2023-02-01T07:09:05;35.65;;;6.18;;
25936;SDS011;13733;51.178;4.450;2023-02-01T07:11:30;31.92;;;5.82;;
25936;SDS011;13733;51.178;4.450;2023-02-01T07:13:57;32.00;;;5.97;;
25936;SDS011;13733;51.178;4.450;2023-02-01T07:16:23;33.40;;;5.28;;
25936;SDS011;13733;51.178;4.450;2023-02-01T07:18:50;33.28;;;6.90;;
25936;SDS011;13733;51.178;4.450;2023-02-01T07:21:17;35.58;;;6.18;;
25936;SDS011;13733;51.178;4.450;2023-02-01T07:23:43;37.78;;;7.07;;
25936;SDS011;13733;51.178;4.450;2023-02-01T07:26:09;32.10;;;6.38;;
25936;SDS011;13733;51.178;4.450;2023-02-01T07:28:38;33.22;;;5.40;;
25936;SDS011;13733;51.178;4.450;2023-02-01T07:31:08;31.17;;;5.30;;
25936;SDS011;13733;51.178;4.450;2023-02-01T07:33:35;30.08;;;5.60;;
25936;SDS011;13733;51.178;4.450;2023-02-01T07:36:03;27.73;;;5.72;;
25936;SDS011;13733;51.178;4.450;2023-02-01T07:38:30;35.40;;;5.75;;
25936;SDS011;13733;51.178;4.450;2023-02-01T07:40:59;38.58;;;5.93;;
25936;SDS011;13733;51.178;4.450;2023-02-01T07:43:27;31.75;;;5.78;;
25936;SDS011;13733;51.178;4.450;2023-02-01T07:45:53;29.35;;;5.57;;
25936;SDS011;13733;51.178;4.450;2023-02-01T07:48:20;38.20;;;6.40;;
25936;SDS011;13733;51.178;4.450;2023-02-01T07:50:47;37.95;;;7.10;;
25936;SDS011;13733;51.178;4.450;2023-02-01T07:53:12;33.97;;;5.78;;
25936;SDS011;13733;51.178;4.450;2023-02-01T07:55:38;33.75;;;5.88;;
25936;SDS011;13733;51.178;4.450;2023-02-01T07:58:04;23.25;;;5.60;;
25936;SDS011;13733;51.178;4.450;2023-02-01T08:00:30;40.38;;;6.93;;
25936;SDS011;13733;51.178;4.450;2023-02-01T08:03:14;25.38;;;5.80;;
25936;SDS011;13733;51.178;4.450;2023-02-01T08:05:40;28.67;;;5.97;;
25936;SDS011;13733;51.178;4.450;2023-02-01T08:08:06;20.20;;;5.22;;
25936;SDS011;13733;51.178;4.450;2023-02-01T08:10:32;34.03;;;5.95;;
25936;SDS011;13733;51.178;4.450;2023-02-01T08:13:00;22.45;;;5.68;;
25936;SDS011;13733;51.178;4.450;2023-02-01T08:15:27;29.88;;;6.47;;
25936;SDS011;13733;51.178;4.450;2023-02-01T08:17:55;42.33;;;6.50;;
25936;SDS011;13733;51.178;4.450;2023-02-01T08:20:22;29.27;;;5.85;;
25936;SDS011;13733;51.178;4.450;2023-02-01T08:22:48;23.13;;;5.20;;
25936;SDS011;13733;51.178;4.450;2023-02-01T08:25:16;39.13;;;6.45;;
25936;SDS011;13733;51.178;4.450;2023-02-01T08:27:43;22.15;;;5.55;;
25936;SDS011;13733;51.178;4.450;2023-02-01T08:30:09;29.88;;;6.18;;
25936;SDS011;13733;51.178;4.450;2023-02-01T08:32:37;28.08;;;6.18;;
25936;SDS011;13733;51.178;4.450;2023-02-01T08:35:03;31.63;;;6.55;;
25936;SDS011;13733;51.178;4.450;2023-02-01T08:37:29;35.25;;;6.97;;
25936;SDS011;13733;51.178;4.450;2023-02-01T08:39:55;30.83;;;5.97;;
25936;SDS011;13733;51.178;4.450;2023-02-01T08:42:21;32.28;;;6.35;;
25936;SDS011;13733;51.178;4.450;2023-02-01T08:45:06;36.88;;;6.68;;
25936;SDS011;13733;51.178;4.450;2023-02-01T08:47:35;35.22;;;6.07;;
25936;SDS011;13733;51.178;4.450;2023-02-01T08:50:01;39.50;;;6.55;;
25936;SDS011;13733;51.178;4.450;2023-02-01T08:52:27;31.67;;;6.38;;
25936;SDS011;13733;51.178;4.450;2023-02-01T08:54:52;37.53;;;6.65;;
25936;SDS011;13733;51.178;4.450;2023-02-01T08:57:18;33.80;;;6.70;;
25936;SDS011;13733;51.178;4.450;2023-02-01T08:59:44;34.72;;;6.45;;
25936;SDS011;13733;51.178;4.450;2023-02-01T09:02:13;27.65;;;7.35;;
25936;SDS011;13733;51.178;4.450;2023-02-01T09:04:40;35.47;;;5.95;;
25936;SDS011;13733;51.178;4.450;2023-02-01T09:07:06;28.60;;;6.18;;
25936;SDS011;13733;51.178;4.450;2023-02-01T09:09:33;29.40;;;6.63;;
25936;SDS011;13733;51.178;4.450;2023-02-01T09:11:58;26.95;;;6.38;;
25936;SDS011;13733;51.178;4.450;2023-02-01T09:14:24;39.90;;;7.50;;
25936;SDS011;13733;51.178;4.450;2023-02-01T09:16:50;38.65;;;7.40;;
25936;SDS011;13733;51.178;4.450;2023-02-01T09:19:16;39.20;;;7.53;;
25936;SDS011;13733;51.178;4.450;2023-02-01T09:21:41;30.98;;;6.90;;
25936;SDS011;13733;51.178;4.450;2023-02-01T09:24:09;29.27;;;5.82;;
25936;SDS011;13733;51.178;4.450;2023-02-01T09:26:36;38.58;;;7.22;;
25936;SDS011;13733;51.178;4.450;2023-02-01T09:29:02;27.27;;;5.85;;
25936;SDS011;13733;51.178;4.450;2023-02-01T09:31:31;36.15;;;6.45;;
25936;SDS011;13733;51.178;4.450;2023-02-01T09:33:57;32.60;;;6.57;;
25936;SDS011;13733;51.178;4.450;2023-02-01T09:36:23;35.50;;;7.97;;
25936;SDS011;13733;51.178;4.450;2023-02-01T09:38:49;28.92;;;6.22;;
25936;SDS011;13733;51.178;4.450;2023-02-01T09:45:05;27.63;;;5.35;;
25936;SDS011;13733;51.178;4.450;2023-02-01T09:47:19;35.50;;;6.30;;
25936;SDS011;13733;51.178;4.450;2023-02-01T09:49:52;32.27;;;5.87;;
25936;SDS011;13733;51.178;4.450;2023-02-01T09:52:34;31.17;;;6.22;;
25936;SDS011;13733;51.178;4.450;2023-02-01T09:55:10;28.63;;;5.75;;
25936;SDS011;13733;51.178;4.450;2023-02-01T09:58:43;29.35;;;6.03;;
25936;SDS011;13733;51.178;4.450;2023-02-01T10:00:53;30.00;;;5.72;;
25936;SDS011;13733;51.178;4.450;2023-02-01T10:03:22;35.33;;;6.43;;
25936;SDS011;13733;51.178;4.450;2023-02-01T10:08:46;27.88;;;5.88;;
25936;SDS011;13733;51.178;4.450;2023-02-01T10:17:15;26.10;;;5.57;;
25936;SDS011;13733;51.178;4.450;2023-02-01T10:20:12;27.27;;;5.22;;
25936;SDS011;13733;51.178;4.450;2023-02-01T10:28:41;24.70;;;5.28;;
25936;SDS011;13733;51.178;4.450;2023-02-01T10:31:10;36.28;;;5.60;;
25936;SDS011;13733;51.178;4.450;2023-02-01T10:33:39;25.55;;;5.32;;
25936;SDS011;13733;51.178;4.450;2023-02-01T10:36:23;32.78;;;5.38;;
25936;SDS011;13733;51.178;4.450;2023-02-01T10:38:52;27.27;;;5.30;;
25936;SDS011;13733;51.178;4.450;2023-02-01T10:41:19;25.52;;;4.72;;
25936;SDS011;13733;51.178;4.450;2023-02-01T10:43:56;27.65;;;4.85;;
25936;SDS011;13733;51.178;4.450;2023-02-01T10:46:23;24.30;;;4.22;;
25936;SDS011;13733;51.178;4.450;2023-02-01T10:48:50;23.05;;;4.28;;
25936;SDS011;13733;51.178;4.450;2023-02-01T10:51:27;23.85;;;4.57;;
25936;SDS011;13733;51.178;4.450;2023-02-01T10:54:03;24.75;;;4.35;;
25936;SDS011;13733;51.178;4.450;2023-02-01T10:56:37;25.33;;;4.88;;
25936;SDS011;13733;51.178;4.450;2023-02-01T10:59:04;21.52;;;4.30;;
25936;SDS011;13733;51.178;4.450;2023-02-01T11:01:34;26.70;;;4.70;;
25936;SDS011;13733;51.178;4.450;2023-02-01T11:04:05;20.98;;;4.43;;
25936;SDS011;13733;51.178;4.450;2023-02-01T11:06:44;18.55;;;3.95;;
25936;SDS011;13733;51.178;4.450;2023-02-01T11:09:40;17.75;;;3.50;;
25936;SDS011;13733;51.178;4.450;2023-02-01T11:12:20;21.25;;;4.50;;
25936;SDS011;13733;51.178;4.450;2023-02-01T11:14:54;17.63;;;3.55;;
25936;SDS011;13733;51.178;4.450;2023-02-01T11:17:26;14.32;;;3.30;;
25936;SDS011;13733;51.178;4.450;2023-02-01T11:20:01;13.00;;;3.13;;
25936;SDS011;13733;51.178;4.450;2023-02-01T11:22:48;15.43;;;3.55;;
25936;SDS011;13733;51.178;4.450;2023-02-01T11:25:19;11.75;;;3.17;;
25936;SDS011;13733;51.178;4.450;2023-02-01T11:27:46;15.90;;;3.58;;
25936;SDS011;13733;51.178;4.450;2023-02-01T11:30:15;20.25;;;3.63;;
25936;SDS011;13733;51.178;4.450;2023-02-01T11:32:46;15.77;;;3.28;;
25936;SDS011;13733;51.178;4.450;2023-02-01T11:35:16;14.13;;;3.22;;
25936;SDS011;13733;51.178;4.450;2023-02-01T11:37:48;14.07;;;3.58;;
25936;SDS011;13733;51.178;4.450;2023-02-01T11:47:55;16.73;;;3.60;;
25936;SDS011;13733;51.178;4.450;2023-02-01T11:50:32;20.17;;;4.28;;
25936;SDS011;13733;51.178;4.450;2023-02-01T11:53:07;25.08;;;3.53;;
25936;SDS011;13733;51.178;4.450;2023-02-01T11:56:17;20.42;;;4.05;;
25936;SDS011;13733;51.178;4.450;2023-02-01T12:15:22;16.23;;;3.15;;
25936;SDS011;13733;51.178;4.450;2023-02-01T12:21:03;19.60;;;3.78;;
25936;SDS011;13733;51.178;4.450;2023-02-01T12:23:49;12.77;;;2.75;;
25936;SDS011;13733;51.178;4.450;2023-02-01T12:26:33;12.00;;;2.70;;
25936;SDS011;13733;51.178;4.450;2023-02-01T12:37:04;14.70;;;3.25;;
25936;SDS011;13733;51.178;4.450;2023-02-01T12:39:40;15.27;;;3.63;;
25936;SDS011;13733;51.178;4.450;2023-02-01T12:42:31;19.02;;;3.60;;
25936;SDS011;13733;51.178;4.450;2023-02-01T12:45:14;18.45;;;3.40;;
25936;SDS011;13733;51.178;4.450;2023-02-01T12:48:33;16.17;;;3.35;;
25936;SDS011;13733;51.178;4.450;2023-02-01T12:50:47;17.50;;;3.80;;
25936;SDS011;13733;51.178;4.450;2023-02-01T12:55:57;17.48;;;3.40;;
25936;SDS011;13733;51.178;4.450;2023-02-01T12:58:38;19.25;;;3.25;;
25936;SDS011;13733;51.178;4.450;2023-02-01T13:01:34;18.90;;;3.70;;
25936;SDS011;13733;51.178;4.450;2023-02-01T13:07:00;16.52;;;3.22;;
25936;SDS011;13733;51.178;4.450;2023-02-01T13:09:51;19.92;;;3.58;;
25936;SDS011;13733;51.178;4.450;2023-02-01T13:12:33;22.90;;;4.28;;
25936;SDS011;13733;51.178;4.450;2023-02-01T13:17:38;13.35;;;2.92;;
25936;SDS011;13733;51.178;4.450;2023-02-01T13:23:11;15.75;;;3.55;;
25936;SDS011;13733;51.178;4.450;2023-02-01T13:25:52;22.08;;;3.72;;
25936;SDS011;13733;51.178;4.450;2023-02-01T13:28:21;23.80;;;3.80;;
25936;SDS011;13733;51.178;4.450;2023-02-01T13:43:58;19.00;;;4.25;;
25936;SDS011;13733;51.178;4.450;2023-02-01T13:46:28;14.75;;;3.60;;
25936;SDS011;13733;51.178;4.450;2023-02-01T13:48:56;15.98;;;3.45;;
25936;SDS011;13733;51.178;4.450;2023-02-01T13:54:00;18.70;;;3.67;;
25936;SDS011;13733;51.178;4.450;2023-02-01T13:56:26;18.42;;;3.42;;
25936;SDS011;13733;51.178;4.450;2023-02-01T13:58:52;19.85;;;3.58;;
25936;SDS011;13733;51.178;4.450;2023-02-01T14:03:48;17.42;;;3.80;;
25936;SDS011;13733;51.178;4.450;2023-02-01T14:09:35;18.58;;;4.28;;
25936;SDS011;13733;51.178;4.450;2023-02-01T14:11:46;20.17;;;3.78;;
25936;SDS011;13733;51.178;4.450;2023-02-01T14:16:43;15.00;;;3.38;;
25936;SDS011;13733;51.178;4.450;2023-02-01T14:21:48;19.80;;;4.00;;
25936;SDS011;13733;51.178;4.450;2023-02-01T14:24:21;22.05;;;3.67;;
25936;SDS011;13733;51.178;4.450;2023-02-01T14:26:54;18.00;;;3.38;;
25936;SDS011;13733;51.178;4.450;2023-02-01T14:31:59;23.25;;;3.97;;
25936;SDS011;13733;51.178;4.450;2023-02-01T14:44:49;18.10;;;3.90;;
25936;SDS011;13733;51.178;4.450;2023-02-01T14:49:52;19.88;;;3.92;;
25936;SDS011;13733;51.178;4.450;2023-02-01T14:52:32;22.63;;;4.13;;
25936;SDS011;13733;51.178;4.450;2023-02-01T14:55:13;20.52;;;3.72;;
25936;SDS011;13733;51.178;4.450;2023-02-01T14:57:44;26.70;;;4.80;;
25936;SDS011;13733;51.178;4.450;2023-02-01T15:02:47;32.72;;;4.75;;
25936;SDS011;13733;51.178;4.450;2023-02-01T15:07:51;20.20;;;3.80;;
25936;SDS011;13733;51.178;4.450;2023-02-01T15:10:18;19.77;;;4.07;;
25936;SDS011;13733;51.178;4.450;2023-02-01T15:12:45;21.98;;;4.15;;
25936;SDS011;13733;51.178;4.450;2023-02-01T15:17:48;17.90;;;4.30;;
25936;SDS011;13733;51.178;4.450;2023-02-01T15:20:22;17.30;;;3.50;;
25936;SDS011;13733;51.178;4.450;2023-02-01T15:23:14;31.13;;;4.18;;
25936;SDS011;13733;51.178;4.450;2023-02-01T15:25:44;21.05;;;4.70;;
25936;SDS011;13733;51.178;4.450;2023-02-01T15:28:15;27.40;;;4.35;;
25936;SDS011;13733;51.178;4.450;2023-02-01T15:33:30;25.10;;;5.05;;
25936;SDS011;13733;51.178;4.450;2023-02-01T15:43:29;28.58;;;4.20;;
25936;SDS011;13733;51.178;4.450;2023-02-01T15:46:01;23.08;;;3.92;;
25936;SDS011;13733;51.178;4.450;2023-02-01T15:48:53;28.85;;;4.78;;
25936;SDS011;13733;51.178;4.450;2023-02-01T15:51:20;23.77;;;4.80;;
25936;SDS011;13733;51.178;4.450;2023-02-01T15:53:52;26.80;;;4.70;;
25936;SDS011;13733;51.178;4.450;2023-02-01T15:56:24;26.77;;;4.75;;
25936;SDS011;13733;51.178;4.450;2023-02-01T15:58:59;19.60;;;5.05;;
25936;SDS011;13733;51.178;4.450;2023-02-01T16:01:27;29.88;;;5.05;;
25936;SDS011;13733;51.178;4.450;2023-02-01T16:04:04;24.25;;;5.00;;
25936;SDS011;13733;51.178;4.450;2023-02-01T16:09:13;25.88;;;4.70;;
25936;SDS011;13733;51.178;4.450;2023-02-01T16:14:21;28.75;;;4.93;;
25936;SDS011;13733;51.178;4.450;2023-02-01T16:16:49;28.33;;;5.20;;
25936;SDS011;13733;51.178;4.450;2023-02-01T16:19:15;21.67;;;5.18;;
25936;SDS011;13733;51.178;4.450;2023-02-01T16:21:41;24.95;;;5.40;;
25936;SDS011;13733;51.178;4.450;2023-02-01T16:24:07;23.42;;;4.78;;
25936;SDS011;13733;51.178;4.450;2023-02-01T16:26:33;28.50;;;5.30;;
25936;SDS011;13733;51.178;4.450;2023-02-01T16:29:00;26.85;;;5.28;;
25936;SDS011;13733;51.178;4.450;2023-02-01T16:31:32;30.05;;;5.38;;
25936;SDS011;13733;51.178;4.450;2023-02-01T16:34:02;30.63;;;5.32;;
25936;SDS011;13733;51.178;4.450;2023-02-01T16:36:30;24.65;;;4.80;;
25936;SDS011;13733;51.178;4.450;2023-02-01T16:39:00;28.92;;;5.80;;
25936;SDS011;13733;51.178;4.450;2023-02-01T16:41:28;27.95;;;5.88;;
25936;SDS011;13733;51.178;4.450;2023-02-01T16:43:54;25.00;;;4.60;;
25936;SDS011;13733;51.178;4.450;2023-02-01T16:46:21;30.17;;;4.72;;
25936;SDS011;13733;51.178;4.450;2023-02-01T16:48:51;26.00;;;4.95;;
25936;SDS011;13733;51.178;4.450;2023-02-01T16:51:22;23.08;;;4.93;;
25936;SDS011;13733;51.178;4.450;2023-02-01T16:53:50;29.23;;;5.53;;
25936;SDS011;13733;51.178;4.450;2023-02-01T16:56:24;22.13;;;4.90;;
25936;SDS011;13733;51.178;4.450;2023-02-01T16:58:54;27.65;;;5.50;;
25936;SDS011;13733;51.178;4.450;2023-02-01T17:01:20;27.63;;;5.90;;
25936;SDS011;13733;51.178;4.450;2023-02-01T17:03:46;29.60;;;5.28;;
25936;SDS011;13733;51.178;4.450;2023-02-01T17:06:16;24.67;;;5.88;;
25936;SDS011;13733;51.178;4.450;2023-02-01T17:08:50;31.00;;;5.32;;
25936;SDS011;13733;51.178;4.450;2023-02-01T17:11:18;26.45;;;5.75;;
25936;SDS011;13733;51.178;4.450;2023-02-01T17:13:44;28.30;;;5.07;;
25936;SDS011;13733;51.178;4.450;2023-02-01T17:19:09;26.02;;;5.28;;
25936;SDS011;13733;51.178;4.450;2023-02-01T17:21:47;27.55;;;5.38;;
25936;SDS011;13733;51.178;4.450;2023-02-01T17:24:24;24.05;;;4.78;;
25936;SDS011;13733;51.178;4.450;2023-02-01T17:26:52;23.67;;;5.18;;
25936;SDS011;13733;51.178;4.450;2023-02-01T17:29:19;19.73;;;5.15;;
25936;SDS011;13733;51.178;4.450;2023-02-01T17:31:45;28.85;;;5.85;;
25936;SDS011;13733;51.178;4.450;2023-02-01T17:34:14;27.10;;;6.03;;
25936;SDS011;13733;51.178;4.450;2023-02-01T17:36:41;22.75;;;5.47;;
25936;SDS011;13733;51.178;4.450;2023-02-01T17:39:08;32.50;;;6.03;;